AU-0067 weather

Adelaide River Heliport
Adelaide River, Northern Territory, Australia

Public forecast

Using degrees Celsius for public forecast. Weather courtesy of forecast.io.

METAR (pilot weather report)

Closest report is Darwin International Airport, 51.1 nm (94.7 km) NNW. Retrieved 2019/05/21 12:30 UTC (7 minutes ago):

YPDN 211230Z 06002KT CAVOK 26/23 Q1014 NOSIG RMK USE TAF FOR ARRIVALS FROM 1230Z

TAF (pilot weather forecast)

Closest forecast is Darwin International Airport, 51.1 nm (94.7 km) NNW. Retrieved 2019/05/21 12:00 UTC (37 minutes ago):

TAF YPDN 211124Z 2112/2218 08006KT CAVOK BECMG 2123/2124 10016G26KT CAVOK FM220500 09012KT CAVOK FM220800 03008KT CAVOK